Date,TemperatureHighF,TemperatureAvgF,TemperatureLowF,DewpointHighF,DewpointAvgF,DewpointLowF,HumidityHigh,HumidityAvg,HumidityLow,PressureMaxIn,PressureMinIn,WindSpeedMaxMPH,WindSpeedAvgMPH,GustSpeedMaxMPH,PrecipitationSumIn
2013-1-1,34,31,26,32,27,20,95,85,71,30.17,30.05,12,2,12,0.07
2013-1-2,30,23,16,20,15,10,91,74,46,30.28,30.15,6,1,6,0.00
2013-1-3,36,25,11,24,17,8,89,74,53,30.33,30.23,14,1,16,0.00
2013-1-4,38,32,28,25,23,20,80,69,54,30.37,30.31,19,3,19,0.02
2013-1-5,41,31,19,30,24,17,92,77,59,30.38,30.17,10,1,10,0.01
2013-1-6,39,34,29,33,28,21,83,77,71,30.37,30.05,17,3,18,0.00
2013-1-7,42,31,21,29,24,19,91,77,58,30.49,30.26,9,1,10,0.00
2013-1-8,52,33,20,37,27,18,93,81,53,30.33,30.23,11,1,11,0.00
2013-1-9,56,41,28,46,36,26,93,81,54,30.52,30.23,11,2,11,0.04
2013-1-10,43,36,27,40,33,26,94,90,76,30.54,30.10,9,1,9,0.06
2013-1-11,63,51,42,55,47,39,95,87,66,30.10,29.89,22,2,22,0.56
2013-1-12,66,54,40,62,51,39,96,91,81,30.03,29.78,19,1,22,0.04
2013-1-13,68,54,34,62,51,31,95,90,77,30.17,29.71,25,5,27,0.93
2013-1-14,34,27,24,30,21,18,87,81,75,30.47,30.17,12,3,12,0.00
2013-1-15,33,28,22,26,22,19,88,79,69,30.39,30.08,14,3,14,0.00
2013-1-16,37,33,31,29,27,25,85,78,63,30.10,29.99,10,2,10,0.00
2013-1-17,44,34,28,32,27,21,89,76,54,30.41,30.10,19,2,19,0.00
2013-1-18,41,30,18,27,20,15,90,68,44,30.55,30.24,17,3,18,0.00
2013-1-19,56,45,36,30,28,25,71,52,33,30.24,29.92,25,7,33,0.00
2013-1-20,47,35,28,35,17,8,66,48,35,30.26,29.94,22,4,22,0.00
2013-1-21,28,22,13,16,8,-4,70,55,40,30.28,30.13,19,4,20,0.00
2013-1-22,20,14,6,0,-2,-4,68,51,36,30.42,30.27,12,2,21,0.00
2013-1-23,23,18,10,10,4,-1,73,54,45,30.38,30.11,12,1,14,0.00
2013-1-24,25,21,15,12,4,-3,64,49,31,30.60,30.11,20,4,20,0.00
2013-1-25,27,24,20,20,13,5,81,66,47,30.45,30.06,11,2,12,0.00
2013-1-26,24,20,17,20,16,13,88,85,79,30.31,30.14,11,1,13,0.00
2013-2-8,36,33,29,30,27,23,82,78,75,30.34,30.08,17,2,18,0.08
2013-2-9,42,32,21,23,20,15,82,62,40,30.43,30.22,10,2,10,0.00
2013-2-10,55,42,32,35,27,20,71,56,40,30.22,29.91,19,3,19,0.07
2013-2-24,38,32,28,25,24,22,80,70,59,30.19,30.15,2,1,3,0.00
2013-2-25,45,34,22,26,23,18,86,65,44,30.21,29.93,13,5,22,0.00
2013-2-26,46,40,34,44,35,24,94,84,57,29.93,29.41,12,7,25,0.77
2013-2-27,41,38,36,38,35,32,92,89,86,29.73,29.56,16,9,23,0.02
2013-3-6,32,30,27,28,27,25,93,89,83,30.31,29.72,17,7,17,0.02
2013-3-7,37,32,29,31,28,24,92,82,72,30.43,30.29,7,2,7,0.13
2013-3-8,44,35,26,27,24,22,83,67,46,30.52,30.41,15,6,15,0.00
2013-3-9,58,44,29,36,31,24,84,61,39,30.41,30.06,15,6,15,0.00
2013-3-10,68,59,52,42,35,29,58,41,24,30.08,29.88,31,15,31,0.04
2013-3-11,57,47,37,51,43,30,94,85,60,29.92,29.68,30,14,30,1.31
2013-3-12,45,37,33,31,28,24,89,70,49,30.11,29.92,21,10,21,0.00
2013-3-13,33,32,31,30,29,28,90,90,89,30.11,30.09,14,6,14,0.00